Terminal Aerodrome Forecast
Issued by NWS

Current Version | Previous Version | Text Only | Print | Product List | Glossary On
Versions: 1 2 3 4 5 6 7 8 9 10 11 12 13
000
FTUS45 KRIW 292300
TAFBPI
TAF
KBPI 292332Z 3000/3024 32010KT P6SM VCSH FEW080 SCT110
     FM300700 VRB05KT P6SM VCSH SCT100 BKN150
     FM301600 26012G18KT P6SM VCSH SCT080 BKN110
     FM301900 28022G32KT P6SM VCTS SCT070CB BKN100=

USA.gov is the U.S. government's official web portal to all federal, state and local government web resources and services.